Time;durP1;ratioP1;P1;durP2;ratioP2;P2;SDS_P1;SDS_P2;PMS_P1;PMS_P2;Temp;Humidity;BMP_temperature;BMP_pressure;BME280_temperature;BME280_humidity;BME280_pressure;Samples;Min_cycle;Max_cycle;Signal;HPM_P1;HPM_P2
2022/09/09 00:01:02;;;;;;;9.43;2.53;;;;;;;16.19;92.50;97771.69;4111107;28;20657;-87
2022/09/09 00:03:12;;;;;;;7.87;2.53;;;;;;;16.17;92.59;97770.97;4126144;28;20674;-87
2022/09/09 00:05:19;;;;;;;3.87;3.10;;;;;;;16.18;92.66;97769.19;4129301;28;20766;-86
2022/09/09 00:07:28;;;;;;;3.90;2.70;;;;;;;16.17;92.20;97775.44;4140553;28;21025;-87
2022/09/09 00:09:37;;;;;;;6.60;3.30;;;;;;;16.14;91.82;97770.47;4141578;28;21043;-87
2022/09/09 00:11:44;;;;;;;5.93;3.10;;;;;;;16.09;92.10;97775.34;4123857;28;20745;-86
2022/09/09 00:13:48;;;;;;;4.63;3.00;;;;;;;16.07;90.80;97772.84;4140837;28;20645;-86
2022/09/09 00:16:00;;;;;;;3.97;2.50;;;;;;;16.04;92.54;97777.56;4126319;28;20651;-87
2022/09/09 00:18:14;;;;;;;5.83;2.50;;;;;;;16.02;91.35;97776.88;4119639;28;20703;-87
2022/09/09 00:20:20;;;;;;;3.63;2.50;;;;;;;16.01;91.89;97777.84;4124502;28;20638;-86
2022/09/09 00:22:25;;;;;;;5.20;2.90;;;;;;;16.00;91.48;97773.59;4123937;28;20721;-87
2022/09/09 00:24:35;;;;;;;4.00;2.80;;;;;;;15.98;91.48;97766.78;4109149;28;20643;-87
2022/09/09 00:26:42;;;;;;;3.33;2.50;;;;;;;15.95;92.40;97767.09;4107505;28;20637;-86
2022/09/09 00:28:52;;;;;;;3.30;2.70;;;;;;;15.97;92.34;97765.97;4125587;28;20774;-86
2022/09/09 00:30:57;;;;;;;5.33;2.97;;;;;;;15.93;92.02;97761.97;4127076;28;20734;-86
2022/09/09 00:33:02;;;;;;;3.13;2.50;;;;;;;15.93;91.72;97761.97;4124847;28;20642;-86
2022/09/09 00:35:17;;;;;;;5.93;3.03;;;;;;;15.95;92.65;97762.69;4127693;28;20635;-86
2022/09/09 00:37:22;;;;;;;4.00;3.10;;;;;;;15.94;93.48;97766.28;4127285;28;20627;-87
2022/09/09 00:39:30;;;;;;;4.13;3.10;;;;;;;15.94;93.45;97755.75;4124483;28;20659;-87
2022/09/09 00:41:45;;;;;;;5.10;3.00;;;;;;;15.92;92.69;97755.06;4124745;28;20659;-87
2022/09/09 00:43:59;;;;;;;5.57;2.90;;;;;;;15.92;92.79;97764.75;4141765;28;21079;-86
2022/09/09 00:46:23;;;;;;;3.77;2.80;;;;;;;15.91;91.68;97760.47;4123566;28;20632;-86
2022/09/09 00:48:32;;;;;;;4.97;3.00;;;;;;;15.87;91.55;97761.72;4126624;28;20641;-87
2022/09/09 00:50:41;;;;;;;4.13;2.87;;;;;;;15.84;91.53;97754.13;4124920;28;20684;-86
2022/09/09 00:52:48;;;;;;;4.67;2.77;;;;;;;15.82;93.66;97756.09;4141573;28;20642;-86
2022/09/09 00:54:57;;;;;;;3.43;2.70;;;;;;;15.80;91.72;97761.50;4124457;28;20646;-86
2022/09/09 00:57:10;;;;;;;8.83;3.00;;;;;;;15.79;92.95;97765.09;4124906;28;20634;-86
2022/09/09 00:59:18;;;;;;;3.70;2.67;;;;;;;15.77;92.36;97769.66;4141926;28;20646;-86
2022/09/09 01:01:23;;;;;;;3.47;2.80;;;;;;;15.78;92.51;97766.03;4125137;28;20673;-87
2022/09/09 01:03:34;;;;;;;4.40;2.60;;;;;;;15.80;92.38;97760.63;4106452;28;20685;-86
2022/09/09 01:05:42;;;;;;;4.53;2.70;;;;;;;15.82;92.13;97769.25;4141247;28;21249;-86
2022/09/09 01:07:48;;;;;;;4.17;2.70;;;;;;;15.82;93.32;97777.13;4103861;28;20648;-86
2022/09/09 01:09:56;;;;;;;6.40;2.60;;;;;;;15.82;94.10;97769.25;4107899;28;21179;-86
2022/09/09 01:12:03;;;;;;;5.20;3.10;;;;;;;15.82;94.24;97762.16;4126667;28;21400;-86
2022/09/09 01:14:20;;;;;;;5.30;2.80;;;;;;;15.86;94.20;97773.22;4109834;28;20635;-87
2022/09/09 01:16:24;;;;;;;3.17;2.53;;;;;;;15.85;93.76;97782.09;4123796;28;21376;-87
2022/09/09 01:18:30;;;;;;;5.60;2.80;;;;;;;15.86;92.93;97771.44;4121417;28;20992;-86
2022/09/09 01:20:41;;;;;;;3.80;2.70;;;;;;;15.89;95.18;97779.03;4140860;28;20990;-86
2022/09/09 01:22:54;;;;;;;4.10;2.70;;;;;;;15.89;93.13;97776.41;4108858;28;20656;-86
2022/09/09 01:25:16;;;;;;;4.77;2.63;;;;;;;15.92;94.13;97783.16;4108082;28;20646;-87
2022/09/09 01:27:48;;;;;;;4.27;2.70;;;;;;;15.93;93.92;97780.38;4125584;28;20680;-86
2022/09/09 01:29:52;;;;;;;4.63;2.17;;;;;;;15.94;94.00;97775.97;4108731;28;20751;-86
2022/09/09 01:31:58;;;;;;;4.57;2.53;;;;;;;15.94;93.62;97779.41;4124167;28;21263;-86
2022/09/09 01:34:01;;;;;;;4.50;2.80;;;;;;;15.95;94.48;97774.97;4140972;28;20619;-86
2022/09/09 01:36:07;;;;;;;8.47;3.03;;;;;;;15.95;93.93;97773.19;4126679;28;20721;-86
2022/09/09 01:38:19;;;;;;;3.77;2.67;;;;;;;15.95;94.18;97773.19;4111077;28;20729;-86
2022/09/09 01:40:25;;;;;;;6.63;3.10;;;;;;;15.94;93.49;97773.34;4109640;28;20721;-87
2022/09/09 01:42:29;;;;;;;3.20;2.73;;;;;;;15.95;94.16;97770.56;4120578;28;20673;-86
2022/09/09 01:44:35;;;;;;;3.20;2.50;;;;;;;15.97;93.21;97770.41;4136588;28;20931;-86
2022/09/09 01:46:38;;;;;;;4.40;3.00;;;;;;;15.98;94.77;97782.59;4141062;28;20629;-86
2022/09/09 01:48:46;;;;;;;3.57;2.73;;;;;;;15.96;94.42;97781.91;4126334;28;20663;-86
2022/09/09 01:50:50;;;;;;;4.00;3.10;;;;;;;15.98;94.71;97782.59;4108217;28;21087;-87
2022/09/09 01:52:57;;;;;;;5.27;3.07;;;;;;;15.97;93.52;97781.75;4112133;28;20636;-87
2022/09/09 01:55:03;;;;;;;3.80;2.90;;;;;;;15.95;94.84;97786.34;4125369;28;21261;-86
2022/09/09 01:57:17;;;;;;;4.40;3.27;;;;;;;15.97;93.12;97787.03;4123984;28;20633;-86
2022/09/09 01:59:41;;;;;;;4.63;3.50;;;;;;;15.99;93.90;97787.69;4123554;28;20638;-86
2022/09/09 02:01:56;;;;;;;6.47;3.10;;;;;;;16.01;94.77;97792.81;4106454;28;20631;-86
2022/09/09 02:04:03;;;;;;;5.10;2.40;;;;;;;16.02;94.67;97794.47;4125940;28;21267;-87
2022/09/09 02:06:15;;;;;;;5.37;3.53;;;;;;;16.03;94.64;97791.72;4136961;28;20705;-86
2022/09/09 02:08:22;;;;;;;4.40;2.90;;;;;;;16.01;94.06;97788.38;4138940;28;21082;-86
2022/09/09 02:10:34;;;;;;;4.50;3.30;;;;;;;16.00;94.16;97786.72;4127123;28;20618;-86
2022/09/09 02:12:54;;;;;;;4.43;3.10;;;;;;;15.94;94.42;97789.94;4118499;28;20630;-86
2022/09/09 02:15:04;;;;;;;4.93;3.20;;;;;;;15.95;94.56;97783.72;4141653;28;20691;-87
2022/09/09 02:17:22;;;;;;;5.13;3.10;;;;;;;15.93;94.89;97784.81;4128611;28;21253;-86
2022/09/09 02:19:33;;;;;;;3.57;3.00;;;;;;;15.91;93.59;97776.25;4142754;28;20673;-86
2022/09/09 02:21:45;;;;;;;3.63;3.07;;;;;;;15.90;94.63;97780.69;4128442;28;21121;-86
2022/09/09 02:23:49;;;;;;;4.43;3.10;;;;;;;15.85;94.20;97771.56;4143961;28;20645;-86
2022/09/09 02:25:53;;;;;;;17.13;4.73;;;;;;;15.83;94.50;97763.84;4127204;28;20653;-86
2022/09/09 02:27:59;;;;;;;4.80;3.10;;;;;;;15.86;96.00;97770.59;4112580;28;20641;-86
2022/09/09 02:30:05;;;;;;;3.83;3.00;;;;;;;15.86;94.11;97768.81;4127265;28;20627;-86
2022/09/09 02:32:22;;;;;;;3.50;2.50;;;;;;;15.87;95.06;97761.72;4143806;28;20663;-87
2022/09/09 02:34:27;;;;;;;5.17;3.30;;;;;;;15.85;93.46;97759.25;4127453;28;20642;-86
2022/09/09 02:36:33;;;;;;;9.03;3.00;;;;;;;15.84;94.76;97754.13;4126438;28;20630;-87
2022/09/09 02:38:42;;;;;;;3.03;2.57;;;;;;;15.83;94.90;97768.25;4128555;28;20631;-86
2022/09/09 02:40:49;;;;;;;4.50;3.20;;;;;;;15.83;93.61;97773.50;4128806;28;20636;-86
2022/09/09 02:42:52;;;;;;;4.47;3.03;;;;;;;15.80;95.16;97766.75;4124721;28;20736;-87
2022/09/09 02:44:56;;;;;;;6.30;3.87;;;;;;;15.77;94.94;97780.19;4142414;28;20652;-87
2022/09/09 02:47:13;;;;;;;4.10;2.97;;;;;;;15.76;93.24;97770.63;4141698;28;21239;-87
2022/09/09 02:49:22;;;;;;;3.77;2.80;;;;;;;15.74;93.07;97772.59;4111687;28;20992;-87
2022/09/09 02:51:28;;;;;;;4.70;2.63;;;;;;;15.70;92.30;97771.19;4141560;28;20638;-87
2022/09/09 02:53:40;;;;;;;3.47;2.63;;;;;;;15.70;93.86;97767.75;4129353;28;20638;-86
2022/09/09 02:55:48;;;;;;;3.00;2.70;;;;;;;15.67;92.38;97775.94;4125174;28;20634;-86
2022/09/09 02:57:55;;;;;;;3.63;2.93;;;;;;;15.66;93.34;97774.25;4127563;28;20744;-86
2022/09/09 03:00:00;;;;;;;5.43;3.13;;;;;;;15.63;93.73;97777.19;4122725;28;20704;-86
2022/09/09 03:02:06;;;;;;;4.43;2.93;;;;;;;15.61;94.62;97782.59;4142443;28;20645;-86
2022/09/09 03:04:10;;;;;;;3.90;2.63;;;;;;;15.60;93.73;97788.78;4109382;28;20636;-85
2022/09/09 03:06:14;;;;;;;5.77;2.70;;;;;;;15.57;92.12;97786.50;4127362;28;20705;-85
2022/09/09 03:08:20;;;;;;;5.00;2.83;;;;;;;15.53;92.88;97784.28;4128246;28;20667;-86
2022/09/09 03:10:23;;;;;;;3.97;2.60;;;;;;;15.54;93.13;97783.28;4127773;28;20645;-86
2022/09/09 03:12:26;;;;;;;4.83;2.90;;;;;;;15.54;93.51;97777.22;4111285;28;20619;-86
2022/09/09 03:14:30;;;;;;;4.80;3.10;;;;;;;15.53;94.10;97780.81;4124254;28;20674;-86
2022/09/09 03:16:34;;;;;;;6.33;2.93;;;;;;;15.52;93.28;97780.00;4124501;28;21124;-86
2022/09/09 03:18:39;;;;;;;5.20;2.70;;;;;;;15.49;92.11;97769.75;4128605;28;20641;-85
2022/09/09 03:20:43;;;;;;;7.23;3.00;;;;;;;15.45;91.62;97764.94;4141476;28;20656;-85
2022/09/09 03:22:46;;;;;;;6.13;2.80;;;;;;;15.42;91.43;97757.31;4111633;28;20689;-86
2022/09/09 03:24:50;;;;;;;4.87;2.93;;;;;;;15.36;93.09;97753.44;4144697;28;20696;-85
2022/09/09 03:26:53;;;;;;;4.30;2.93;;;;;;;15.36;94.11;97760.53;4112327;28;21358;-86
2022/09/09 03:28:56;;;;;;;4.23;3.20;;;;;;;15.33;93.70;97758.19;4128085;28;21387;-86
2022/09/09 03:31:00;;;;;;;5.63;3.63;;;;;;;15.31;93.28;97762.75;4124338;28;20673;-86
2022/09/09 03:33:06;;;;;;;3.20;2.80;;;;;;;15.36;93.83;97760.53;4108609;28;20662;-87
2022/09/09 03:35:11;;;;;;;3.53;2.37;;;;;;;15.39;93.95;97752.34;4127184;28;20652;-85
2022/09/09 03:37:14;;;;;;;3.87;2.70;;;;;;;15.42;93.57;97749.44;4113060;28;20701;-85
2022/09/09 03:39:17;;;;;;;3.50;2.60;;;;;;;15.42;92.69;97744.19;4130430;28;20640;-86
2022/09/09 03:41:23;;;;;;;5.17;2.33;;;;;;;15.45;91.85;97751.78;4112534;28;20731;-86
2022/09/09 03:43:27;;;;;;;4.23;2.37;;;;;;;15.48;91.85;97751.50;4127505;28;20713;-86
2022/09/09 03:45:30;;;;;;;3.10;2.23;;;;;;;15.51;92.88;97753.84;4112037;28;20650;-86
2022/09/09 03:47:33;;;;;;;3.33;2.00;;;;;;;15.53;92.46;97758.00;4129638;28;21279;-87
2022/09/09 03:49:40;;;;;;;6.73;2.70;;;;;;;15.53;91.07;97762.41;4111531;28;21082;-86
2022/09/09 03:51:45;;;;;;;4.40;2.53;;;;;;;15.53;92.67;97770.28;4124188;28;20642;-86
2022/09/09 03:53:49;;;;;;;4.60;2.77;;;;;;;15.51;92.78;97775.69;4111354;28;21572;-86
2022/09/09 03:55:54;;;;;;;5.40;2.90;;;;;;;15.50;91.38;97776.69;4126236;28;20781;-86
2022/09/09 03:58:00;;;;;;;3.20;2.67;;;;;;;15.49;93.47;97772.38;4124726;28;20629;-86
2022/09/09 04:00:05;;;;;;;4.73;2.80;;;;;;;15.47;92.06;97760.34;4128503;28;20635;-86
2022/09/09 04:02:18;;;;;;;4.57;3.03;;;;;;;15.46;93.14;97767.41;4126961;28;21026;-86
2022/09/09 04:04:22;;;;;;;6.30;3.00;;;;;;;15.41;93.42;97774.91;4127837;28;20644;-86
2022/09/09 04:06:25;;;;;;;4.60;3.03;;;;;;;15.40;93.30;97775.03;4125039;28;20706;-86
2022/09/09 04:08:31;;;;;;;5.60;3.50;;;;;;;15.37;93.02;97775.31;4126639;28;20629;-86
2022/09/09 04:10:37;;;;;;;4.23;2.83;;;;;;;15.34;92.17;97770.34;4124515;28;20637;-87
2022/09/09 04:12:41;;;;;;;5.10;3.30;;;;;;;15.31;92.68;97768.00;4145713;28;20649;-85
2022/09/09 04:14:44;;;;;;;3.70;2.57;;;;;;;15.28;93.68;97779.63;4125763;28;20680;-86
2022/09/09 04:16:47;;;;;;;3.97;2.90;;;;;;;15.25;94.02;97784.34;4123934;28;20637;-86
2022/09/09 04:18:52;;;;;;;4.23;3.07;;;;;;;15.24;94.23;97780.84;4129363;28;20684;-86
2022/09/09 04:20:57;;;;;;;4.93;3.03;;;;;;;15.23;92.29;97778.38;4140268;28;20664;-86
2022/09/09 04:23:02;;;;;;;4.67;3.10;;;;;;;15.20;93.29;97776.06;4123554;28;20637;-87
2022/09/09 04:25:07;;;;;;;4.67;3.40;;;;;;;15.17;93.42;97778.97;4122972;28;21174;-86
2022/09/09 04:27:10;;;;;;;4.87;2.80;;;;;;;15.12;93.52;97781.13;4138850;28;21079;-86
2022/09/09 04:29:14;;;;;;;4.90;3.27;;;;;;;15.08;92.25;97769.25;4142301;28;20682;-86
2022/09/09 04:31:19;;;;;;;5.33;3.27;;;;;;;15.06;92.07;97767.72;4141226;28;20687;-86
2022/09/09 04:33:26;;;;;;;4.90;3.20;;;;;;;15.06;92.18;97773.81;4124758;28;20682;-86
2022/09/09 04:35:29;;;;;;;6.40;4.00;;;;;;;15.06;92.75;97776.44;4125917;28;20661;-86
2022/09/09 04:37:32;;;;;;;7.77;3.73;;;;;;;15.07;93.10;97777.28;4142032;28;20741;-86
2022/09/09 04:39:36;;;;;;;4.40;3.60;;;;;;;15.06;92.89;97778.25;4143547;28;20629;-87
2022/09/09 04:41:41;;;;;;;5.03;3.87;;;;;;;15.06;94.31;97783.50;4112455;28;20649;-87
2022/09/09 04:43:45;;;;;;;5.23;3.60;;;;;;;15.04;94.26;97782.81;4110314;28;20637;-86
2022/09/09 04:45:52;;;;;;;4.90;4.20;;;;;;;15.05;94.14;97784.44;4131948;28;20685;-86
2022/09/09 04:47:58;;;;;;;6.00;3.83;;;;;;;15.03;94.00;97787.22;4110507;28;20671;-86
2022/09/09 04:50:01;;;;;;;5.40;3.50;;;;;;;15.03;93.84;97789.03;4121407;28;21094;-86
2022/09/09 04:52:05;;;;;;;5.07;3.53;;;;;;;15.00;93.67;97789.31;4128129;28;20640;-86
2022/09/09 04:54:11;;;;;;;6.37;3.10;;;;;;;15.00;92.98;97791.94;4128057;28;20712;-86
2022/09/09 04:56:17;;;;;;;4.90;3.27;;;;;;;15.01;93.61;97793.59;4140073;28;20637;-86
2022/09/09 04:58:27;;;;;;;4.80;3.20;;;;;;;15.01;92.94;97810.19;4137563;28;20643;-86
2022/09/09 05:00:30;;;;;;;6.50;3.50;;;;;;;15.01;94.43;97791.78;4141049;28;20645;-86
2022/09/09 05:02:33;;;;;;;5.27;3.00;;;;;;;15.05;94.13;97793.19;4143799;28;20728;-86
2022/09/09 05:04:37;;;;;;;5.40;3.10;;;;;;;15.05;94.33;97793.19;4111932;28;20735;-86
2022/09/09 05:06:42;;;;;;;4.40;3.43;;;;;;;15.07;93.32;97812.25;4115228;28;20717;-86
2022/09/09 05:08:46;;;;;;;5.80;3.50;;;;;;;15.10;94.65;97809.34;4112498;28;20643;-85
2022/09/09 05:10:52;;;;;;;5.10;3.17;;;;;;;15.10;94.37;97815.41;4143376;28;21087;-86
2022/09/09 05:12:56;;;;;;;4.60;3.40;;;;;;;15.12;94.91;97825.78;4126790;28;21216;-85
2022/09/09 05:15:03;;;;;;;4.80;3.47;;;;;;;15.14;95.22;97824.69;4138331;28;20765;-85
2022/09/09 05:17:07;;;;;;;5.97;3.43;;;;;;;15.18;95.56;97815.59;4110241;28;20623;-86
2022/09/09 05:19:12;;;;;;;4.90;3.20;;;;;;;15.20;95.12;97833.84;4142987;28;20626;-85
2022/09/09 05:21:28;;;;;;;5.67;3.90;;;;;;;15.28;95.45;97824.28;4127350;28;21293;-85
2022/09/09 05:23:31;;;;;;;5.73;4.07;;;;;;;15.47;95.05;97826.91;4113557;28;20646;-85
2022/09/09 05:25:35;;;;;;;7.40;3.80;;;;;;;15.71;93.99;97832.50;4143413;28;20629;-85
2022/09/09 05:27:38;;;;;;;5.30;3.13;;;;;;;15.91;93.84;97828.88;4108929;28;20634;-85
2022/09/09 05:29:44;;;;;;;6.63;4.00;;;;;;;16.04;91.84;97831.03;4128070;28;20622;-85
2022/09/09 05:31:49;;;;;;;4.63;3.73;;;;;;;16.02;91.92;97829.50;4119442;28;20637;-86
2022/09/09 05:33:55;;;;;;;5.70;3.80;;;;;;;15.94;92.12;97832.03;4106747;28;20666;-85
2022/09/09 05:36:01;;;;;;;6.50;4.30;;;;;;;15.90;92.51;97828.03;4120998;28;20630;-87
2022/09/09 05:38:04;;;;;;;7.77;4.40;;;;;;;15.91;93.72;97824.44;4124362;28;20638;-88
2022/09/09 05:40:08;;;;;;;5.50;3.77;;;;;;;15.93;91.73;97835.63;4122828;28;21235;-88
2022/09/09 05:42:11;;;;;;;4.27;3.27;;;;;;;15.92;91.90;97828.72;4127676;28;20635;-88
2022/09/09 05:44:14;;;;;;;6.10;4.27;;;;;;;15.94;92.82;97829.41;4112583;28;20623;-91
2022/09/09 05:46:20;;;;;;;7.27;4.30;;;;;;;15.98;92.21;97830.75;4144637;28;20646;-92
2022/09/09 05:48:28;;;;;;;9.43;4.10;;;;;;;15.92;91.33;97834.00;4125496;28;20645;-91
2022/09/09 05:50:32;;;;;;;8.33;3.60;;;;;;;16.00;90.98;97834.09;4122702;28;20668;-92
2022/09/09 05:52:35;;;;;;;7.47;3.90;;;;;;;16.04;90.71;97836.28;4121251;28;20639;-93
2022/09/09 05:54:40;;;;;;;6.80;3.97;;;;;;;16.05;91.33;97842.38;4127314;28;21085;-93
2022/09/09 05:56:44;;;;;;;7.63;3.90;;;;;;;16.33;91.96;97841.47;4127747;28;20646;-92
2022/09/09 05:58:53;;;;;;;5.80;3.60;;;;;;;16.66;90.96;97845.16;4127289;28;20640;-93
2022/09/09 06:01:05;;;;;;;5.63;3.33;;;;;;;16.80;89.45;97847.28;4113288;28;21218;-92
2022/09/09 06:03:11;;;;;;;3.73;3.17;;;;;;;16.77;89.86;97852.84;4143490;28;20644;-91
2022/09/09 06:05:16;;;;;;;5.20;3.60;;;;;;;16.98;89.55;97860.47;4113039;28;20994;-92
2022/09/09 06:07:19;;;;;;;7.33;3.73;;;;;;;17.09;88.47;97850.53;4122840;28;20685;-92
2022/09/09 06:09:23;;;;;;;5.47;3.43;;;;;;;17.02;87.26;97852.13;4126303;28;21064;-92
2022/09/09 06:11:30;;;;;;;5.20;4.00;;;;;;;16.94;87.60;97853.84;4112046;28;20676;-92
2022/09/09 06:13:35;;;;;;;5.27;4.17;;;;;;;16.85;88.05;97847.66;4111312;28;20648;-93
2022/09/09 06:15:38;;;;;;;6.23;3.90;;;;;;;16.80;89.17;97847.28;4122827;28;20683;-93
2022/09/09 06:17:43;;;;;;;5.47;4.30;;;;;;;16.80;89.56;97836.72;4122370;28;20675;-93
2022/09/09 06:19:47;;;;;;;7.40;4.10;;;;;;;16.84;89.47;97842.53;4126040;28;20685;-92
2022/09/09 06:21:52;;;;;;;9.30;4.50;;;;;;;16.84;89.27;97840.75;4124849;28;20665;-92
2022/09/09 06:23:55;;;;;;;5.80;3.80;;;;;;;16.79;89.90;97845.59;4125306;28;21218;-92
2022/09/09 06:26:05;;;;;;;5.57;4.10;;;;;;;16.77;89.23;97842.28;4124173;28;21345;-93
2022/09/09 06:28:10;;;;;;;8.40;3.90;;;;;;;16.79;89.94;97840.34;4124923;28;20646;-93
2022/09/09 06:30:13;;;;;;;5.13;3.83;;;;;;;16.85;89.58;97845.00;4127787;28;20625;-91
2022/09/09 06:32:17;;;;;;;5.90;3.63;;;;;;;17.01;88.56;97846.00;4127916;28;20646;-91
2022/09/09 06:34:21;;;;;;;8.87;3.20;;;;;;;17.21;88.79;97852.81;4128558;28;20751;-91
2022/09/09 06:36:29;;;;;;;5.77;3.20;;;;;;;17.26;87.91;97847.09;4129249;28;21260;-90
2022/09/09 06:38:34;;;;;;;6.43;3.23;;;;;;;17.31;88.47;97842.22;4129593;28;20732;-90
2022/09/09 06:40:38;;;;;;;4.90;3.70;;;;;;;17.41;88.91;97845.56;4129112;28;21066;-91
2022/09/09 06:42:41;;;;;;;7.03;3.50;;;;;;;17.43;87.79;97844.44;4144106;28;21326;-91
2022/09/09 06:45:06;;;;;;;5.30;3.30;;;;;;;17.59;90.76;97853.31;4126922;28;20654;-91
2022/09/09 06:47:17;;;;;;;3.70;3.10;;;;;;;17.79;88.48;97854.78;4128999;28;20638;-91
2022/09/09 06:49:21;;;;;;;5.17;3.30;;;;;;;17.88;88.10;97859.13;4125471;28;20700;-91
2022/09/09 06:51:25;;;;;;;5.10;3.40;;;;;;;17.91;87.37;97850.09;4123883;28;20639;-91
2022/09/09 06:53:29;;;;;;;7.90;3.60;;;;;;;17.94;88.14;97853.22;4108492;28;20747;-91
2022/09/09 06:55:35;;;;;;;6.40;3.40;;;;;;;17.99;88.11;97850.94;4108279;28;20664;-90
2022/09/09 06:57:39;;;;;;;4.70;3.43;;;;;;;18.00;88.70;97857.88;4109202;28;21224;-90
2022/09/09 06:59:50;;;;;;;4.67;3.10;;;;;;;18.05;89.09;97855.59;4109786;28;20647;-88
2022/09/09 07:01:55;;;;;;;5.80;3.40;;;;;;;18.11;88.37;97857.63;4112422;28;20628;-90
2022/09/09 07:04:00;;;;;;;4.70;3.33;;;;;;;18.13;87.56;97858.31;4140001;28;20644;-91
2022/09/09 07:06:04;;;;;;;3.97;3.00;;;;;;;18.21;87.89;97858.38;4134197;28;20658;-91
2022/09/09 07:08:07;;;;;;;6.40;3.40;;;;;;;18.33;88.06;97857.94;4124179;28;20643;-91
2022/09/09 07:10:10;;;;;;;5.30;3.20;;;;;;;18.38;86.87;97868.03;4125596;28;20634;-90
2022/09/09 07:12:15;;;;;;;4.20;3.10;;;;;;;18.41;86.66;97869.34;4110431;28;20637;-91
2022/09/09 07:14:26;;;;;;;5.57;3.40;;;;;;;18.47;87.30;97868.72;4126326;28;21242;-90
2022/09/09 07:16:36;;;;;;;7.03;3.30;;;;;;;18.55;88.03;97881.13;4111149;28;20696;-90
2022/09/09 07:18:40;;;;;;;6.60;3.70;;;;;;;18.60;88.00;97877.03;4126802;28;20683;-89
2022/09/09 07:20:43;;;;;;;10.63;3.90;;;;;;;18.71;88.86;97878.56;4122494;28;20644;-89
2022/09/09 07:22:46;;;;;;;6.03;3.33;;;;;;;18.80;88.94;97870.50;4142929;28;20702;-90
2022/09/09 07:24:50;;;;;;;7.07;3.50;;;;;;;18.84;87.11;97877.13;4142926;28;20640;-90
2022/09/09 07:26:54;;;;;;;5.10;3.27;;;;;;;18.97;87.26;97880.13;4144363;28;20631;-89
2022/09/09 07:28:58;;;;;;;6.30;3.30;;;;;;;19.06;87.55;97869.47;4127680;28;21229;-90
2022/09/09 07:31:03;;;;;;;5.80;2.93;;;;;;;19.23;86.21;97872.94;4112308;28;20635;-90
2022/09/09 07:33:07;;;;;;;4.47;3.07;;;;;;;19.34;85.92;97878.75;4127027;28;20641;-91
2022/09/09 07:35:10;;;;;;;7.53;3.83;;;;;;;19.65;85.86;97879.75;4128476;28;20649;-90
2022/09/09 07:37:13;;;;;;;6.03;3.23;;;;;;;19.72;84.37;97870.97;4110547;28;21216;-90
2022/09/09 07:39:18;;;;;;;5.20;3.30;;;;;;;19.72;82.28;97883.41;4125858;28;20764;-90
2022/09/09 07:41:27;;;;;;;5.53;3.30;;;;;;;19.95;83.25;97882.56;4139595;28;21019;-90
2022/09/09 07:43:31;;;;;;;6.00;3.00;;;;;;;20.04;81.96;97877.13;4143559;28;20742;-90
2022/09/09 07:45:36;;;;;;;5.07;3.20;;;;;;;20.17;83.09;97881.88;4127429;28;21251;-90
2022/09/09 07:47:41;;;;;;;4.90;2.80;;;;;;;20.36;81.75;97885.00;4142703;28;21339;-90
2022/09/09 07:49:46;;;;;;;5.43;2.50;;;;;;;20.51;80.17;97884.09;4126936;28;20653;-89
2022/09/09 07:51:52;;;;;;;4.17;2.50;;;;;;;20.80;79.79;97894.97;4141902;28;20629;-91
2022/09/09 07:53:57;;;;;;;3.63;2.47;;;;;;;21.03;80.41;97888.72;4110556;28;20743;-90
2022/09/09 07:56:04;;;;;;;6.60;2.67;;;;;;;21.17;79.00;97889.78;4128141;28;20713;-90
2022/09/09 07:58:07;;;;;;;4.53;2.47;;;;;;;21.20;78.87;97894.75;4108602;28;20625;-91
2022/09/09 08:00:15;;;;;;;3.47;2.40;;;;;;;21.22;78.94;97895.41;4139631;28;20635;-90
2022/09/09 08:02:27;;;;;;;5.77;2.90;;;;;;;21.20;78.02;97878.81;4125548;28;20646;-88
2022/09/09 08:04:31;;;;;;;5.00;2.37;;;;;;;21.17;76.09;97882.66;4124920;28;20666;-90
2022/09/09 08:06:37;;;;;;;4.03;2.20;;;;;;;21.13;76.49;97881.34;4124980;28;21026;-90
2022/09/09 08:08:43;;;;;;;3.10;1.87;;;;;;;21.21;76.96;97875.16;4109737;28;20640;-91
2022/09/09 08:10:46;;;;;;;5.83;2.27;;;;;;;21.35;77.58;97885.88;4124605;28;20640;-90
2022/09/09 08:12:49;;;;;;;4.67;2.00;;;;;;;21.40;75.17;97883.50;4126700;28;21062;-89
2022/09/09 08:15:12;;;;;;;3.40;1.97;;;;;;;21.55;75.55;97895.88;4124995;28;21249;-90
2022/09/09 08:17:16;;;;;;;5.63;2.07;;;;;;;21.61;74.35;97895.16;4110725;28;20664;-90
2022/09/09 08:19:21;;;;;;;3.50;1.70;;;;;;;21.60;74.69;97898.00;4127503;28;21007;-90
2022/09/09 08:21:26;;;;;;;3.93;2.10;;;;;;;21.60;74.24;97906.78;4127876;28;21038;-90
2022/09/09 08:23:31;;;;;;;4.50;1.90;;;;;;;21.70;73.61;97904.72;4142638;28;21251;-90
2022/09/09 08:25:35;;;;;;;9.73;2.13;;;;;;;22.10;73.55;97902.56;4126057;28;20669;-89
2022/09/09 08:27:38;;;;;;;4.20;1.90;;;;;;;22.56;72.24;97899.59;4127834;28;20747;-90
2022/09/09 08:29:42;;;;;;;4.50;1.90;;;;;;;22.89;69.68;97898.19;4125939;28;20710;-90
2022/09/09 08:31:46;;;;;;;5.93;2.30;;;;;;;22.95;69.71;97902.81;4127320;28;20645;-90
2022/09/09 08:33:50;;;;;;;4.00;1.80;;;;;;;22.84;69.62;97897.94;4126262;28;20695;-89
2022/09/09 08:35:58;;;;;;;2.50;1.70;;;;;;;22.92;70.02;97908.47;4143571;28;21316;-90
2022/09/09 08:38:01;;;;;;;3.90;2.00;;;;;;;23.03;69.18;97908.84;4130208;28;20739;-89
2022/09/09 08:40:10;;;;;;;4.00;1.77;;;;;;;23.19;68.75;97912.13;4128430;28;20727;-89
2022/09/09 08:42:33;;;;;;;6.17;2.10;;;;;;;23.29;67.76;97904.66;4141275;28;20631;-87
2022/09/09 08:45:11;;;;;;;3.00;1.50;;;;;;;23.24;66.58;97900.91;4136539;28;21244;-90
2022/09/09 08:47:20;;;;;;;5.57;2.10;;;;;;;23.45;68.08;97896.44;4112899;28;20673;-90
2022/09/09 08:49:46;;;;;;;6.10;1.63;;;;;;;23.70;67.37;97917.22;4109748;28;21207;-90
2022/09/09 08:51:52;;;;;;;3.33;1.63;;;;;;;23.89;67.79;97913.94;4142331;28;20678;-90
2022/09/09 08:53:56;;;;;;;4.93;1.30;;;;;;;24.12;66.35;97916.38;4124793;28;20641;-90
2022/09/09 08:56:05;;;;;;;4.33;1.40;;;;;;;24.25;65.81;97915.47;4123232;28;20736;-91
2022/09/09 08:58:23;;;;;;;4.43;1.40;;;;;;;24.51;66.48;97915.69;4126289;28;20719;-90
2022/09/09 09:00:34;;;;;;;2.70;1.60;;;;;;;24.71;64.98;97917.44;4106418;28;20647;-90
2022/09/09 09:02:45;;;;;;;3.37;1.80;;;;;;;24.59;64.23;97909.38;4120866;28;20641;-90
2022/09/09 09:05:00;;;;;;;3.60;1.73;;;;;;;24.33;64.21;97909.19;4124390;28;21271;-90
2022/09/09 09:07:13;;;;;;;2.17;1.47;;;;;;;24.39;65.27;97892.41;4109969;28;21012;-90
2022/09/09 09:09:23;;;;;;;2.53;1.20;;;;;;;24.39;63.55;97890.56;4138235;28;20928;-89
2022/09/09 09:11:26;;;;;;;3.87;1.43;;;;;;;24.15;64.79;97890.97;4139885;28;20634;-90
2022/09/09 09:13:36;;;;;;;8.60;1.77;;;;;;;24.01;63.96;97890.22;4127831;28;20788;-91
2022/09/09 09:15:49;;;;;;;2.30;1.30;;;;;;;23.85;65.41;97879.84;4123008;28;20658;-90
2022/09/09 09:17:52;;;;;;;3.50;1.40;;;;;;;23.93;65.87;97890.38;4124060;28;21280;-89
2022/09/09 09:19:56;;;;;;;4.60;1.50;;;;;;;24.25;66.18;97885.28;4125565;28;20672;-90
2022/09/09 09:22:03;;;;;;;2.93;1.30;;;;;;;24.50;63.90;97887.34;4127509;28;20627;-89
2022/09/09 09:24:17;;;;;;;3.50;1.40;;;;;;;24.33;62.67;97883.34;4135020;28;21060;-91
2022/09/09 09:26:27;;;;;;;6.43;1.30;;;;;;;24.34;64.23;97881.50;4142516;28;20640;-90
2022/09/09 09:28:32;;;;;;;7.43;2.00;;;;;;;24.63;65.01;97877.56;4125726;28;20628;-89
2022/09/09 09:30:45;;;;;;;3.10;1.43;;;;;;;24.80;64.15;97875.41;4124976;28;20752;-89
2022/09/09 09:32:53;;;;;;;4.13;1.20;;;;;;;25.02;62.93;97876.97;4126407;28;20636;-91
2022/09/09 09:34:57;;;;;;;4.13;1.57;;;;;;;24.86;63.38;97871.94;4138029;28;20708;-90
2022/09/09 09:37:02;;;;;;;7.00;1.70;;;;;;;24.95;64.82;97863.56;4141710;28;20726;-90
2022/09/09 09:39:09;;;;;;;2.30;1.60;;;;;;;25.11;62.01;97859.75;4134461;28;20699;-90
2022/09/09 09:41:37;;;;;;;5.97;1.60;;;;;;;24.91;63.53;97858.81;4124610;28;20631;-90
2022/09/09 09:43:42;;;;;;;2.47;1.30;;;;;;;24.83;63.40;97856.34;4140347;28;20637;-89
2022/09/09 09:45:50;;;;;;;3.43;1.53;;;;;;;24.68;62.06;97839.63;4112829;28;20647;-90
2022/09/09 09:48:14;;;;;;;4.10;1.53;;;;;;;24.36;62.20;97845.63;4113202;28;20645;-89
2022/09/09 09:50:19;;;;;;;2.67;1.60;;;;;;;23.94;63.98;97842.22;4110327;28;20642;-89
2022/09/09 09:52:26;;;;;;;9.07;1.60;;;;;;;23.70;64.62;97841.81;4127450;28;20646;-90
2022/09/09 09:54:35;;;;;;;4.67;1.57;;;;;;;23.61;65.00;97834.94;4123284;28;20629;-90
2022/09/09 09:56:39;;;;;;;5.57;1.80;;;;;;;23.55;64.51;97837.53;4120335;28;21059;-89
2022/09/09 09:58:51;;;;;;;5.33;1.50;;;;;;;23.41;65.48;97833.94;4124463;28;20639;-89